HEAX/ALY METAR and TAF weather

Enter ICAO airport designator
Station Type Date Time Source
HEAX METAR 2020/09/22 23:00 UTC NOAA

HEAX 222300Z 33006KT 9999 SCT020 26/20 Q1014 NOSIG


Station Type Date Time Source
HEAX Decoded METAR 2020/09/22 23:00 UTC NOAA

Alexandria / Nouzha, Egypt (HEAX) 31-12N 029-57E 7M
Sep 22, 2020 - 07:00 PM EDT / 2020.09.22 2300 UTC
Wind: from the NNW (330 degrees) at 7 MPH (6 KT):0
Visibility: greater than 7 mile(s):0
Sky conditions: partly cloudy
Temperature: 78 F (26 C)
Dew Point: 68 F (20 C)
Relative Humidity: 69%
Pressure (altimeter): 29.94 in. Hg (1014 hPa)
ob: HEAX 222300Z 33006KT 9999 SCT020 26/20 Q1014 NOSIG
cycle: 23

Station Type Date Time Source
HEAX TAF 2020/09/22 18:54 UTC NOAA

TAF TAF HEAX 221700Z 2218/2324 34010KT 9999 FEW020

Example: see airport list